Time;durP1;ratioP1;P1;durP2;ratioP2;P2;SDS_P1;SDS_P2;PMS_P1;PMS_P2;Temp;Humidity;BMP_temperature;BMP_pressure;BME280_temperature;BME280_humidity;BME280_pressure;Samples;Min_cycle;Max_cycle;Signal;HPM_P1;HPM_P2
2023/11/07 00:01:29;;;;;;;8.77;3.97;;;11.90;94.70;;;;;;5063694;28;20601;-67
2023/11/07 00:03:58;;;;;;;8.80;4.33;;;11.90;94.80;;;;;;5058562;28;20742;-67
2023/11/07 00:06:25;;;;;;;10.47;4.00;;;11.90;94.80;;;;;;5064777;28;20201;-67
2023/11/07 00:08:53;;;;;;;4.63;4.13;;;11.80;94.80;;;;;;5066184;28;20640;-67
2023/11/07 00:11:20;;;;;;;7.50;4.40;;;11.80;94.90;;;;;;5065743;28;20627;-66
2023/11/07 00:13:50;;;;;;;10.00;4.20;;;11.80;94.90;;;;;;5058317;28;20216;-66
2023/11/07 00:16:18;;;;;;;5.23;3.47;;;11.70;95.00;;;;;;5062340;28;20202;-66
2023/11/07 00:18:46;;;;;;;5.77;3.73;;;11.70;95.00;;;;;;5030915;28;20740;-67
2023/11/07 00:21:14;;;;;;;10.73;4.83;;;11.70;95.00;;;;;;5061644;28;20195;-67
2023/11/07 00:23:41;;;;;;;7.93;3.90;;;11.60;95.00;;;;;;5070068;28;20564;-67
2023/11/07 00:26:08;;;;;;;7.93;4.10;;;11.60;95.10;;;;;;5048664;28;20599;-67
2023/11/07 00:28:39;;;;;;;6.73;3.53;;;11.50;95.10;;;;;;5065139;28;20648;-67
2023/11/07 00:31:06;;;;;;;6.40;4.00;;;11.50;95.20;;;;;;5059122;28;20262;-66
2023/11/07 00:33:33;;;;;;;5.60;3.47;;;11.40;95.10;;;;;;5045601;28;20237;-67
2023/11/07 00:36:01;;;;;;;8.20;3.40;;;11.30;95.10;;;;;;5061978;28;20546;-67
2023/11/07 00:38:29;;;;;;;5.37;3.47;;;11.30;95.10;;;;;;5053445;28;20219;-67
2023/11/07 00:40:56;;;;;;;6.30;3.87;;;11.20;95.20;;;;;;5060378;28;20186;-68
2023/11/07 00:43:23;;;;;;;7.30;4.33;;;11.20;95.20;;;;;;5045558;28;20653;-68
2023/11/07 00:45:50;;;;;;;7.67;4.20;;;11.10;95.30;;;;;;5033060;28;20207;-67
2023/11/07 00:48:18;;;;;;;4.73;3.70;;;11.10;95.40;;;;;;5049633;28;20545;-68
2023/11/07 00:50:45;;;;;;;9.13;3.37;;;11.10;95.40;;;;;;5047287;28;20217;-68
2023/11/07 00:53:13;;;;;;;5.10;3.40;;;11.00;95.10;;;;;;5029901;28;20209;-67
2023/11/07 00:55:40;;;;;;;4.00;3.60;;;11.00;95.10;;;;;;5045249;28;20220;-67
2023/11/07 00:58:07;;;;;;;6.87;4.63;;;10.90;95.20;;;;;;5059603;28;20210;-68
2023/11/07 01:00:35;;;;;;;8.37;3.90;;;10.90;95.40;;;;;;5043224;28;20199;-67
2023/11/07 01:03:02;;;;;;;5.57;3.93;;;10.90;95.40;;;;;;5049749;28;20217;-66
2023/11/07 01:05:30;;;;;;;5.60;3.90;;;10.80;95.50;;;;;;5064918;28;20220;-67
2023/11/07 01:07:57;;;;;;;7.40;3.73;;;10.80;95.60;;;;;;5062231;28;20237;-66
2023/11/07 01:10:24;;;;;;;4.60;3.80;;;10.80;95.70;;;;;;5063082;28;20212;-66
2023/11/07 01:12:52;;;;;;;6.33;3.93;;;10.80;95.80;;;;;;5059529;28;20211;-66
2023/11/07 01:15:20;;;;;;;6.03;3.67;;;10.80;95.90;;;;;;5064809;28;20249;-66
2023/11/07 01:17:47;;;;;;;9.17;3.73;;;10.70;95.90;;;;;;5039067;28;20213;-66
2023/11/07 01:20:14;;;;;;;4.23;3.43;;;10.70;95.90;;;;;;5041668;28;20228;-67
2023/11/07 01:22:41;;;;;;;5.17;3.80;;;10.70;95.90;;;;;;5065906;28;20218;-67
2023/11/07 01:25:09;;;;;;;8.43;3.70;;;10.70;96.10;;;;;;5057865;28;20539;-67
2023/11/07 01:27:36;;;;;;;4.37;3.67;;;10.60;95.80;;;;;;5063101;28;20574;-67
2023/11/07 01:30:05;;;;;;;7.13;3.90;;;10.60;95.70;;;;;;5043291;28;20205;-66
2023/11/07 01:32:32;;;;;;;6.43;4.43;;;10.50;95.60;;;;;;5061505;28;20251;-67
2023/11/07 01:34:59;;;;;;;7.80;4.23;;;10.50;95.60;;;;;;5044020;28;20220;-67
2023/11/07 01:37:27;;;;;;;10.97;4.73;;;10.50;95.80;;;;;;5061307;28;20212;-67
2023/11/07 01:39:54;;;;;;;8.33;5.10;;;10.50;96.00;;;;;;5058925;28;20227;-67
2023/11/07 01:42:21;;;;;;;6.73;4.10;;;10.40;96.10;;;;;;5050139;28;20605;-67
2023/11/07 01:44:50;;;;;;;8.77;3.73;;;10.50;96.30;;;;;;5064188;28;20201;-67
2023/11/07 01:47:18;;;;;;;9.33;3.90;;;10.50;96.30;;;;;;5048281;28;20194;-66
2023/11/07 01:49:46;;;;;;;7.00;4.73;;;10.50;96.30;;;;;;5059565;28;20240;-67
2023/11/07 01:52:16;;;;;;;6.33;3.73;;;10.40;96.30;;;;;;5062309;28;20640;-67
2023/11/07 01:54:45;;;;;;;7.90;4.23;;;10.40;96.30;;;;;;5062139;28;20197;-67
2023/11/07 01:57:13;;;;;;;6.27;4.40;;;10.40;96.30;;;;;;5058361;28;20228;-66
2023/11/07 01:59:40;;;;;;;8.43;4.97;;;10.40;96.30;;;;;;5046197;28;20239;-67
2023/11/07 02:02:17;;;;;;;12.50;4.10;;;10.40;96.30;;;;;;5061527;28;21220;-66
2023/11/07 02:04:46;;;;;;;5.37;3.87;;;10.30;96.30;;;;;;5065668;28;20269;-67
2023/11/07 02:07:14;;;;;;;5.63;3.70;;;10.30;96.20;;;;;;5059791;28;20224;-66
2023/11/07 02:09:42;;;;;;;9.53;4.20;;;10.30;96.20;;;;;;5049061;28;20282;-67
2023/11/07 02:12:09;;;;;;;8.00;4.37;;;10.30;96.20;;;;;;5046432;28;20201;-67
2023/11/07 02:14:36;;;;;;;5.60;3.67;;;10.20;96.20;;;;;;5044449;28;20221;-66
2023/11/07 02:17:04;;;;;;;15.27;5.00;;;10.20;96.20;;;;;;5064351;28;20316;-67
2023/11/07 02:19:32;;;;;;;6.70;3.90;;;10.20;96.20;;;;;;5058900;28;20233;-67
2023/11/07 02:22:00;;;;;;;7.67;4.17;;;10.20;96.30;;;;;;5061031;28;20200;-67
2023/11/07 02:24:28;;;;;;;4.90;4.00;;;10.20;96.30;;;;;;5057778;28;20201;-67
2023/11/07 02:26:59;;;;;;;7.43;4.40;;;10.10;96.30;;;;;;5060231;28;20231;-67
2023/11/07 02:29:26;;;;;;;7.80;4.90;;;10.20;96.40;;;;;;5059810;28;20265;-67
2023/11/07 02:31:53;;;;;;;5.23;4.13;;;10.20;96.40;;;;;;5047023;28;20236;-67
2023/11/07 02:34:20;;;;;;;10.67;3.37;;;10.10;96.40;;;;;;5060583;28;20205;-67
2023/11/07 02:36:47;;;;;;;6.50;3.77;;;10.10;96.40;;;;;;5064584;28;20220;-67
2023/11/07 02:39:15;;;;;;;5.17;3.60;;;10.10;96.40;;;;;;5045912;28;20612;-67
2023/11/07 02:41:44;;;;;;;6.87;4.47;;;10.10;96.30;;;;;;5060357;28;20197;-67
2023/11/07 02:44:12;;;;;;;7.07;4.27;;;10.10;96.10;;;;;;5055392;28;20539;-67
2023/11/07 02:46:39;;;;;;;13.90;4.47;;;10.00;95.90;;;;;;5061489;28;20203;-67
2023/11/07 02:49:07;;;;;;;5.57;4.20;;;10.00;96.00;;;;;;5056961;28;20733;-67
2023/11/07 02:51:34;;;;;;;5.83;4.47;;;9.90;96.20;;;;;;5047392;28;20206;-67
2023/11/07 02:54:01;;;;;;;11.20;4.10;;;9.90;96.20;;;;;;5041861;28;20299;-67
2023/11/07 02:56:29;;;;;;;7.00;4.47;;;9.90;96.30;;;;;;5063112;28;20201;-67
2023/11/07 02:58:58;;;;;;;11.33;4.80;;;9.90;96.40;;;;;;5046846;28;20520;-67
2023/11/07 03:01:26;;;;;;;6.43;3.97;;;9.90;96.60;;;;;;5060734;28;20206;-66
2023/11/07 03:03:54;;;;;;;8.67;4.47;;;9.90;96.70;;;;;;5043790;28;20274;-67
2023/11/07 03:06:22;;;;;;;11.13;4.27;;;9.90;96.70;;;;;;5058790;28;20208;-66
2023/11/07 03:08:49;;;;;;;5.40;4.07;;;9.90;96.70;;;;;;5064139;28;20202;-66
2023/11/07 03:11:17;;;;;;;5.73;3.13;;;9.90;96.70;;;;;;5048308;28;20219;-67
2023/11/07 03:13:45;;;;;;;10.87;4.33;;;9.80;96.70;;;;;;5059566;28;20198;-67
2023/11/07 03:16:12;;;;;;;3.70;3.40;;;9.80;96.70;;;;;;5064260;28;20239;-67
2023/11/07 03:18:39;;;;;;;7.33;3.90;;;9.80;96.80;;;;;;5048814;28;20231;-67
2023/11/07 03:21:10;;;;;;;5.37;3.43;;;9.80;96.80;;;;;;5052681;28;20209;-67
2023/11/07 03:23:37;;;;;;;5.67;4.07;;;9.80;96.80;;;;;;5063039;28;20192;-67
2023/11/07 03:26:04;;;;;;;7.93;3.80;;;9.80;96.80;;;;;;5063652;28;20205;-67
2023/11/07 03:28:31;;;;;;;4.37;3.57;;;9.80;96.80;;;;;;5064889;28;20193;-67
2023/11/07 03:30:58;;;;;;;7.60;3.97;;;9.80;96.80;;;;;;5060478;28;20202;-67
2023/11/07 03:33:25;;;;;;;6.53;4.07;;;9.80;96.60;;;;;;5061033;28;20228;-67
2023/11/07 03:35:53;;;;;;;12.23;5.67;;;9.70;96.40;;;;;;5061454;28;20210;-67
2023/11/07 03:38:20;;;;;;;6.03;4.17;;;9.70;96.40;;;;;;5064893;28;20199;-66
2023/11/07 03:40:47;;;;;;;7.20;5.10;;;9.70;96.50;;;;;;5044441;28;20233;-66
2023/11/07 03:43:15;;;;;;;6.43;4.03;;;9.70;96.70;;;;;;5063884;28;20687;-67
2023/11/07 03:45:43;;;;;;;6.07;3.90;;;9.70;96.80;;;;;;5066878;28;20209;-66
2023/11/07 03:48:10;;;;;;;9.77;4.53;;;9.80;96.90;;;;;;5064496;28;20746;-67
2023/11/07 03:50:37;;;;;;;7.30;4.40;;;9.80;96.80;;;;;;5060736;28;20205;-67
2023/11/07 03:53:05;;;;;;;8.73;4.80;;;9.80;96.70;;;;;;5062778;28;20199;-67
2023/11/07 03:55:33;;;;;;;9.27;4.97;;;9.70;96.70;;;;;;5066559;28;20269;-67
2023/11/07 03:58:00;;;;;;;8.83;4.43;;;9.80;96.90;;;;;;5062011;28;20205;-67
2023/11/07 04:00:27;;;;;;;11.50;5.50;;;9.80;97.00;;;;;;5065287;28;20225;-67
2023/11/07 04:02:54;;;;;;;9.67;5.40;;;9.80;97.10;;;;;;5059319;28;20528;-67
2023/11/07 04:05:23;;;;;;;7.70;4.50;;;9.90;97.20;;;;;;5063651;28;20258;-67
2023/11/07 04:07:50;;;;;;;10.30;4.50;;;9.90;97.20;;;;;;5031403;28;20190;-67
2023/11/07 04:10:17;;;;;;;7.70;4.33;;;10.00;97.30;;;;;;5057201;28;20222;-68
2023/11/07 04:12:44;;;;;;;7.33;4.57;;;9.90;97.20;;;;;;5047629;28;20203;-66
2023/11/07 04:15:12;;;;;;;6.43;4.90;;;10.00;97.10;;;;;;5062719;28;20281;-67
2023/11/07 04:17:40;;;;;;;8.50;4.13;;;9.90;96.90;;;;;;5046002;28;20206;-67
2023/11/07 04:20:11;;;;;;;8.57;4.20;;;9.90;96.90;;;;;;5062132;28;20362;-67
2023/11/07 04:22:39;;;;;;;10.23;4.47;;;9.90;97.00;;;;;;5059080;28;20202;-67
2023/11/07 04:25:06;;;;;;;11.63;4.27;;;9.80;97.00;;;;;;5064145;28;20200;-66
2023/11/07 04:27:36;;;;;;;5.40;3.80;;;9.90;97.10;;;;;;5060396;28;20216;-67
2023/11/07 04:30:07;;;;;;;4.10;3.70;;;9.90;97.20;;;;;;5057880;28;20218;-67
2023/11/07 04:32:35;;;;;;;5.37;3.90;;;9.90;97.30;;;;;;5064566;28;20256;-66
2023/11/07 04:35:05;;;;;;;5.13;4.03;;;9.90;97.20;;;;;;5063832;28;20285;-66
2023/11/07 04:37:33;;;;;;;8.50;4.77;;;9.90;97.10;;;;;;5068210;28;20216;-67
2023/11/07 04:40:02;;;;;;;12.37;4.57;;;9.90;97.10;;;;;;5058421;28;20224;-67
2023/11/07 04:42:29;;;;;;;9.23;4.80;;;9.90;97.00;;;;;;5045215;28;20199;-67
2023/11/07 04:44:56;;;;;;;7.17;4.80;;;9.80;96.90;;;;;;5049785;28;20687;-66
2023/11/07 04:47:23;;;;;;;5.77;3.60;;;9.80;96.90;;;;;;5065274;28;20218;-67
2023/11/07 04:49:51;;;;;;;4.97;4.40;;;9.80;97.00;;;;;;5058730;28;20242;-67
2023/11/07 04:52:19;;;;;;;6.73;4.00;;;9.80;97.10;;;;;;5047169;28;20374;-67
2023/11/07 04:54:46;;;;;;;7.83;4.67;;;9.80;97.20;;;;;;5065233;28;20215;-67
2023/11/07 04:57:14;;;;;;;10.70;4.90;;;9.70;97.30;;;;;;5063229;28;20202;-67
2023/11/07 04:59:41;;;;;;;7.70;5.07;;;9.70;97.20;;;;;;5070790;28;20680;-67
2023/11/07 05:02:08;;;;;;;5.77;4.03;;;9.70;97.30;;;;;;5048587;28;20198;-67
2023/11/07 05:04:35;;;;;;;6.30;4.00;;;9.60;97.20;;;;;;5043035;28;20541;-67
2023/11/07 05:07:03;;;;;;;7.67;4.20;;;9.60;97.20;;;;;;5057577;28;20629;-66
2023/11/07 05:09:30;;;;;;;8.00;4.33;;;9.50;97.20;;;;;;5066662;28;20203;-67
2023/11/07 05:11:59;;;;;;;5.23;3.70;;;9.50;97.30;;;;;;5060204;28;20202;-66
2023/11/07 05:14:27;;;;;;;8.07;5.03;;;9.50;97.30;;;;;;5060444;28;20291;-66
2023/11/07 05:16:54;;;;;;;7.57;4.70;;;9.50;97.20;;;;;;5047819;28;20205;-66
2023/11/07 05:19:21;;;;;;;5.97;4.30;;;9.50;97.10;;;;;;5059465;28;20204;-68
2023/11/07 05:21:49;;;;;;;7.07;4.50;;;9.40;97.40;;;;;;5065229;28;20531;-66
2023/11/07 05:24:16;;;;;;;8.43;4.87;;;9.40;97.30;;;;;;5046821;28;20203;-66
2023/11/07 05:26:43;;;;;;;7.90;4.90;;;9.40;97.20;;;;;;5061416;28;20616;-66
2023/11/07 05:29:14;;;;;;;10.00;5.77;;;9.30;97.10;;;;;;5061214;28;20193;-67
2023/11/07 05:31:42;;;;;;;11.57;4.97;;;9.30;97.10;;;;;;5063483;28;20368;-66
2023/11/07 05:34:09;;;;;;;13.70;6.57;;;9.30;97.20;;;;;;5062930;28;20197;-66
2023/11/07 05:36:36;;;;;;;7.00;5.23;;;9.20;97.30;;;;;;5061058;28;20211;-66
2023/11/07 05:39:03;;;;;;;6.67;5.77;;;9.20;97.30;;;;;;5062992;28;20206;-66
2023/11/07 05:41:31;;;;;;;9.90;5.80;;;9.20;97.40;;;;;;5046159;28;20249;-66
2023/11/07 05:43:58;;;;;;;7.60;6.27;;;9.20;97.40;;;;;;5060851;28;20200;-66
2023/11/07 05:46:27;;;;;;;12.63;7.80;;;9.20;97.30;;;;;;5030168;28;20610;-66
2023/11/07 05:48:54;;;;;;;10.63;7.73;;;9.20;97.40;;;;;;5065002;28;20678;-66
2023/11/07 05:51:24;;;;;;;8.57;6.83;;;9.20;97.40;;;;;;5063383;28;20286;-66
2023/11/07 05:53:51;;;;;;;7.70;6.47;;;9.20;97.30;;;;;;5058279;28;20217;-66
2023/11/07 05:56:19;;;;;;;13.47;7.03;;;9.30;97.30;;;;;;5058424;28;20587;-66
2023/11/07 05:58:46;;;;;;;19.03;9.27;;;9.20;97.10;;;;;;5046355;28;20279;-66
2023/11/07 06:01:15;;;;;;;53.57;11.33;;;9.20;97.20;;;;;;5061125;28;20233;-66
2023/11/07 06:03:42;;;;;;;82.83;13.37;;;9.20;97.30;;;;;;5044193;28;20207;-68
2023/11/07 06:06:10;;;;;;;53.93;13.50;;;9.20;97.40;;;;;;5056228;28;20651;-66
2023/11/07 06:08:37;;;;;;;44.13;14.03;;;9.20;97.50;;;;;;5064715;28;20201;-66
2023/11/07 06:11:04;;;;;;;94.77;13.23;;;9.20;97.60;;;;;;5048270;28;20207;-66
2023/11/07 06:13:31;;;;;;;82.77;13.60;;;9.30;97.80;;;;;;5025405;28;20216;-67
2023/11/07 06:15:58;;;;;;;39.23;12.50;;;9.30;97.80;;;;;;5060168;28;20510;-66
2023/11/07 06:18:25;;;;;;;20.43;12.83;;;9.30;97.90;;;;;;5044043;28;20557;-66
2023/11/07 06:20:53;;;;;;;17.77;11.53;;;9.30;98.00;;;;;;5046625;28;20274;-67
2023/11/07 06:23:20;;;;;;;24.30;12.57;;;9.30;98.10;;;;;;5036987;28;20556;-66
2023/11/07 06:25:48;;;;;;;14.60;11.70;;;9.30;98.10;;;;;;5039828;28;20620;-67
2023/11/07 06:28:15;;;;;;;16.20;14.10;;;9.30;98.10;;;;;;5062969;28;20196;-68
2023/11/07 06:30:43;;;;;;;13.43;12.13;;;9.30;98.10;;;;;;5045352;28;20234;-67
2023/11/07 06:33:11;;;;;;;88.33;15.37;;;9.30;98.20;;;;;;5060558;28;20248;-66
2023/11/07 06:35:38;;;;;;;145.77;17.10;;;9.30;98.30;;;;;;5057424;28;20201;-67
2023/11/07 06:38:05;;;;;;;18.43;14.03;;;9.30;98.30;;;;;;5042187;28;20700;-66
2023/11/07 06:40:34;;;;;;;82.57;15.00;;;9.30;98.30;;;;;;5065479;28;20212;-66
2023/11/07 06:43:03;;;;;;;25.90;13.73;;;9.30;98.40;;;;;;5037512;28;20198;-67
2023/11/07 06:45:30;;;;;;;33.20;16.07;;;9.30;98.50;;;;;;5060087;28;20254;-67
2023/11/07 06:47:57;;;;;;;37.63;14.97;;;9.40;98.50;;;;;;5066446;28;20203;-67
2023/11/07 06:50:26;;;;;;;26.07;14.50;;;9.40;98.70;;;;;;5032896;28;20211;-68
2023/11/07 06:52:53;;;;;;;25.67;13.47;;;9.50;98.80;;;;;;5068384;28;20206;-67
2023/11/07 06:55:24;;;;;;;65.07;14.83;;;9.50;98.80;;;;;;5066211;28;20645;-67
2023/11/07 06:57:54;;;;;;;55.70;15.77;;;9.60;98.80;;;;;;5048713;28;20215;-66
2023/11/07 07:00:24;;;;;;;17.87;14.80;;;9.60;98.70;;;;;;5048043;28;20218;-66
2023/11/07 07:02:55;;;;;;;20.57;13.97;;;9.70;98.60;;;;;;5049327;28;20608;-66
2023/11/07 07:05:24;;;;;;;21.97;15.07;;;9.70;98.60;;;;;;5069354;28;20200;-67
2023/11/07 07:07:52;;;;;;;23.23;14.67;;;9.80;98.70;;;;;;5065012;28;20186;-67
2023/11/07 07:10:19;;;;;;;15.60;14.10;;;9.90;98.60;;;;;;5048434;28;20204;-67
2023/11/07 07:12:46;;;;;;;16.47;14.67;;;10.10;98.40;;;;;;5064001;28;20266;-67
2023/11/07 07:15:14;;;;;;;16.67;15.17;;;10.20;98.20;;;;;;5063448;28;20202;-67
2023/11/07 07:17:41;;;;;;;16.63;15.03;;;10.30;98.10;;;;;;5055756;28;20200;-67
2023/11/07 07:20:12;;;;;;;17.20;15.50;;;10.40;98.30;;;;;;5032770;28;20222;-65
2023/11/07 07:22:44;;;;;;;17.60;15.33;;;10.60;98.40;;;;;;5067272;28;20247;-67
2023/11/07 07:25:20;;;;;;;16.67;14.97;;;10.80;98.20;;;;;;5065144;28;20199;-67
2023/11/07 07:27:48;;;;;;;18.53;16.60;;;11.10;97.90;;;;;;5065521;28;20247;-67
2023/11/07 07:30:20;;;;;;;18.67;16.73;;;11.30;97.50;;;;;;5047932;28;20204;-67
2023/11/07 07:32:50;;;;;;;19.57;16.87;;;11.40;97.20;;;;;;5055899;28;20567;-66
2023/11/07 07:35:20;;;;;;;17.73;15.93;;;11.60;97.30;;;;;;5046703;28;20284;-67
2023/11/07 07:37:52;;;;;;;17.60;15.73;;;11.70;97.30;;;;;;5067644;28;20203;-67
2023/11/07 07:40:25;;;;;;;18.33;15.93;;;11.90;97.40;;;;;;5047950;28;20228;-67
2023/11/07 07:43:08;;;;;;;18.57;16.67;;;11.90;97.40;;;;;;5068063;28;20532;-68
2023/11/07 07:45:38;;;;;;;17.93;15.50;;;12.10;97.40;;;;;;5064733;28;20229;-67
2023/11/07 07:48:07;;;;;;;15.73;14.00;;;12.10;97.40;;;;;;5048290;28;20258;-67
2023/11/07 07:50:34;;;;;;;20.60;15.83;;;12.20;97.50;;;;;;5058775;28;20213;-70
2023/11/07 07:53:06;;;;;;;17.17;15.27;;;12.20;97.50;;;;;;5051008;28;20199;-67
2023/11/07 07:55:33;;;;;;;18.67;16.67;;;12.30;97.60;;;;;;5062440;28;20265;-67
2023/11/07 07:58:06;;;;;;;18.30;15.90;;;12.40;97.60;;;;;;5064770;28;20209;-67
2023/11/07 08:00:37;;;;;;;17.30;15.50;;;12.50;97.60;;;;;;5060563;28;20249;-67
2023/11/07 08:03:08;;;;;;;17.40;15.70;;;12.60;97.70;;;;;;5061273;28;20236;-67
2023/11/07 08:05:39;;;;;;;18.90;16.13;;;12.70;97.60;;;;;;5062916;28;20303;-67
2023/11/07 08:08:08;;;;;;;21.27;15.70;;;12.80;97.50;;;;;;5037064;28;20214;-66
2023/11/07 08:10:37;;;;;;;21.03;15.77;;;12.90;97.30;;;;;;5046979;28;20209;-67
2023/11/07 08:13:07;;;;;;;18.33;16.33;;;13.00;97.40;;;;;;5061991;28;20622;-67
2023/11/07 08:15:35;;;;;;;16.70;14.97;;;13.20;97.40;;;;;;5063752;28;20194;-66
2023/11/07 08:18:06;;;;;;;20.10;16.53;;;13.30;97.50;;;;;;5060215;28;20304;-67
2023/11/07 08:20:35;;;;;;;17.10;14.93;;;13.40;97.50;;;;;;5065314;28;20205;-67
2023/11/07 08:23:03;;;;;;;17.80;14.53;;;13.60;97.40;;;;;;5063521;28;20637;-67
2023/11/07 08:25:32;;;;;;;17.97;15.40;;;13.80;97.20;;;;;;5045306;28;20629;-67
2023/11/07 08:28:00;;;;;;;17.27;14.63;;;13.90;97.00;;;;;;5057786;28;20325;-67
2023/11/07 08:30:27;;;;;;;17.90;14.90;;;14.00;96.70;;;;;;5061797;28;20656;-68
2023/11/07 08:32:55;;;;;;;20.03;16.10;;;14.10;96.60;;;;;;5046141;28;20665;-68
2023/11/07 08:35:22;;;;;;;20.77;14.93;;;14.20;96.60;;;;;;5045980;28;20282;-66
2023/11/07 08:37:51;;;;;;;16.63;14.73;;;14.30;96.50;;;;;;5040971;28;20209;-66
2023/11/07 08:40:21;;;;;;;19.07;15.33;;;14.40;96.30;;;;;;5029655;28;20281;-67
2023/11/07 08:42:51;;;;;;;16.73;14.90;;;14.60;96.20;;;;;;5042480;28;20205;-66
2023/11/07 08:45:20;;;;;;;14.57;12.87;;;14.70;96.10;;;;;;5047795;28;20205;-67
2023/11/07 08:47:54;;;;;;;18.60;13.90;;;14.80;95.90;;;;;;5037064;28;20725;-66
2023/11/07 08:50:21;;;;;;;18.90;13.83;;;14.90;95.60;;;;;;5043677;28;20227;-67
2023/11/07 08:52:52;;;;;;;12.13;10.83;;;15.00;95.50;;;;;;5041245;28;20228;-67
2023/11/07 08:55:21;;;;;;;14.03;12.37;;;15.00;95.30;;;;;;5042290;28;20198;-66
2023/11/07 08:57:49;;;;;;;16.37;12.67;;;15.20;95.00;;;;;;5044063;28;20278;-67
2023/11/07 09:00:23;;;;;;;17.13;13.50;;;15.20;94.70;;;;;;5048478;28;20597;-67
2023/11/07 09:02:51;;;;;;;13.90;12.23;;;15.20;94.70;;;;;;5039549;28;20201;-66
2023/11/07 09:05:21;;;;;;;15.17;11.43;;;15.30;94.80;;;;;;5043100;28;20642;-67
2023/11/07 09:07:48;;;;;;;12.23;10.93;;;15.50;94.80;;;;;;5040154;28;20210;-67
2023/11/07 09:10:15;;;;;;;12.57;11.27;;;15.50;94.40;;;;;;5024600;28;20199;-66
2023/11/07 09:12:42;;;;;;;17.87;11.10;;;15.60;94.20;;;;;;5042382;28;20209;-68
2023/11/07 09:15:11;;;;;;;12.27;10.77;;;15.60;94.10;;;;;;5028211;28;20214;-67
2023/11/07 09:17:39;;;;;;;13.97;10.47;;;15.70;93.90;;;;;;5043813;28;20633;-66
2023/11/07 09:20:11;;;;;;;12.70;10.60;;;15.70;93.90;;;;;;5044831;28;20203;-67
2023/11/07 09:22:40;;;;;;;14.13;10.77;;;15.70;93.80;;;;;;5044186;28;20545;-67
2023/11/07 09:25:11;;;;;;;16.67;10.20;;;15.80;93.80;;;;;;5039278;28;20210;-66
2023/11/07 09:27:39;;;;;;;12.03;10.83;;;15.90;93.80;;;;;;5040102;28;20210;-67
2023/11/07 09:30:09;;;;;;;13.97;10.60;;;15.90;93.60;;;;;;5042538;28;20203;-67
2023/11/07 09:32:38;;;;;;;11.00;9.33;;;16.00;93.60;;;;;;5053930;28;20783;-68
2023/11/07 09:35:06;;;;;;;13.30;10.43;;;16.10;93.80;;;;;;5060277;28;20365;-67
2023/11/07 09:37:39;;;;;;;10.20;8.63;;;16.20;93.50;;;;;;5040228;28;20202;-67
2023/11/07 09:40:17;;;;;;;13.50;8.27;;;16.30;93.50;;;;;;5049271;28;20213;-66
2023/11/07 09:42:50;;;;;;;13.10;10.10;;;16.40;93.40;;;;;;5059641;28;20197;-67
2023/11/07 09:45:19;;;;;;;8.13;6.77;;;16.50;93.10;;;;;;5066113;28;20205;-67
2023/11/07 09:47:48;;;;;;;11.33;7.53;;;16.60;92.80;;;;;;5044081;28;20201;-67
2023/11/07 09:50:17;;;;;;;10.37;7.57;;;16.70;92.60;;;;;;5059765;28;20191;-66
2023/11/07 09:52:46;;;;;;;10.30;7.20;;;16.80;92.40;;;;;;5050143;28;20200;-67
2023/11/07 09:55:17;;;;;;;9.33;6.63;;;16.80;92.00;;;;;;5045064;28;20234;-66
2023/11/07 09:57:54;;;;;;;13.57;7.13;;;16.90;91.90;;;;;;5067167;28;20197;-68
2023/11/07 10:00:36;;;;;;;8.27;6.33;;;17.00;91.80;;;;;;5054851;28;20208;-67
2023/11/07 10:03:03;;;;;;;9.47;6.77;;;17.10;91.50;;;;;;5049446;28;20214;-66
2023/11/07 10:05:31;;;;;;;10.87;6.93;;;17.20;91.30;;;;;;5063070;28;20257;-67
2023/11/07 10:07:59;;;;;;;9.17;5.93;;;17.30;91.00;;;;;;5049434;28;20203;-67
2023/11/07 10:10:26;;;;;;;12.67;6.17;;;17.30;90.80;;;;;;5058092;28;20203;-66
2023/11/07 10:13:05;;;;;;;9.97;6.50;;;17.40;90.70;;;;;;5056485;28;20202;-67
2023/11/07 10:15:32;;;;;;;14.13;6.40;;;17.40;90.00;;;;;;5066766;28;20199;-66
2023/11/07 10:18:04;;;;;;;7.33;5.47;;;17.50;90.10;;;;;;5065954;28;20202;-67
2023/11/07 10:20:33;;;;;;;6.70;4.70;;;17.60;90.10;;;;;;5065149;28;20208;-66
2023/11/07 10:23:01;;;;;;;7.93;5.37;;;17.70;89.90;;;;;;5064880;28;20576;-67
2023/11/07 10:25:36;;;;;;;7.37;5.17;;;17.70;89.30;;;;;;5063933;28;20232;-66
2023/11/07 10:28:08;;;;;;;7.13;5.37;;;17.80;89.30;;;;;;5065868;28;20640;-66
2023/11/07 10:30:36;;;;;;;8.33;5.03;;;17.90;89.40;;;;;;5065647;28;20277;-67
2023/11/07 10:33:04;;;;;;;7.03;5.00;;;17.90;89.00;;;;;;5063240;28;20309;-66
2023/11/07 10:36:02;;;;;;;6.97;5.07;;;18.00;88.80;;;;;;5062993;28;20263;-66
2023/11/07 10:38:30;;;;;;;5.40;3.40;;;18.10;88.50;;;;;;5066562;28;20746;-67
2023/11/07 10:41:01;;;;;;;7.63;3.40;;;18.20;86.90;;;;;;5064177;28;20552;-66
2023/11/07 10:43:39;;;;;;;7.07;5.17;;;18.20;85.80;;;;;;5062884;28;20192;-66
2023/11/07 10:46:10;;;;;;;12.13;4.10;;;18.30;86.00;;;;;;5066519;28;20187;-66
2023/11/07 10:48:39;;;;;;;5.47;4.23;;;18.30;86.40;;;;;;5063568;28;20202;-66
2023/11/07 10:51:09;;;;;;;3.40;2.80;;;18.40;86.30;;;;;;5059646;28;20200;-65
2023/11/07 10:53:38;;;;;;;5.47;2.63;;;18.50;85.60;;;;;;5039863;28;20211;-66
2023/11/07 10:56:18;;;;;;;4.83;2.80;;;18.60;84.50;;;;;;5067311;28;20242;-67
2023/11/07 10:59:02;;;;;;;4.90;2.60;;;18.70;83.90;;;;;;5058829;28;20212;-66
2023/11/07 11:01:34;;;;;;;5.63;3.13;;;18.80;83.20;;;;;;5059413;28;20225;-66
2023/11/07 11:04:02;;;;;;;6.67;2.97;;;18.90;83.40;;;;;;5064363;28;20216;-67
2023/11/07 11:06:32;;;;;;;6.50;3.00;;;19.00;82.60;;;;;;5053573;28;20688;-67
2023/11/07 11:09:07;;;;;;;3.73;2.80;;;19.10;82.20;;;;;;5066381;28;20277;-66
2023/11/07 11:11:36;;;;;;;4.33;3.03;;;19.20;81.40;;;;;;5067521;28;20345;-66
2023/11/07 11:14:08;;;;;;;4.10;2.90;;;19.20;80.60;;;;;;5052989;28;20284;-67
2023/11/07 11:16:41;;;;;;;8.00;3.50;;;19.30;79.70;;;;;;5065366;28;20268;-65
2023/11/07 11:19:28;;;;;;;4.63;2.40;;;19.30;79.70;;;;;;5059768;28;20640;-65
2023/11/07 11:22:35;;;;;;;6.20;2.80;;;19.40;79.30;;;;;;5066054;28;20212;-67
2023/11/07 11:25:23;;;;;;;5.13;2.77;;;19.50;80.00;;;;;;5038312;28;20647;-67
2023/11/07 11:28:01;;;;;;;4.37;2.53;;;19.50;79.70;;;;;;5062116;28;20200;-67
2023/11/07 11:30:31;;;;;;;7.97;2.33;;;19.60;78.80;;;;;;5065333;28;20192;-65
2023/11/07 11:33:06;;;;;;;3.60;2.07;;;19.60;78.30;;;;;;5064402;28;20248;-68
2023/11/07 11:35:38;;;;;;;4.37;1.97;;;19.70;77.00;;;;;;5062626;28;20197;-65
2023/11/07 11:38:23;;;;;;;3.33;1.90;;;19.70;77.20;;;;;;5062449;28;20237;-67
2023/11/07 11:41:02;;;;;;;3.43;2.30;;;19.80;77.40;;;;;;5065053;28;20295;-66
2023/11/07 11:43:32;;;;;;;4.37;2.30;;;19.90;76.90;;;;;;5053120;28;20199;-67
2023/11/07 11:46:14;;;;;;;3.10;1.97;;;19.90;77.10;;;;;;5058347;28;20202;-67
2023/11/07 11:48:49;;;;;;;6.30;2.37;;;20.00;76.40;;;;;;5064756;28;20523;-67
2023/11/07 11:51:38;;;;;;;2.57;2.37;;;20.00;75.90;;;;;;5065581;28;20205;-66
2023/11/07 11:54:08;;;;;;;2.67;2.07;;;20.10;76.00;;;;;;5064197;28;20232;-66
2023/11/07 11:56:50;;;;;;;4.10;2.47;;;20.20;75.40;;;;;;5060561;28;20210;-66
2023/11/07 11:59:24;;;;;;;4.17;1.90;;;20.20;75.30;;;;;;5053992;28;20251;-66
2023/11/07 12:02:00;;;;;;;4.60;2.40;;;20.30;73.80;;;;;;5051937;28;20217;-66
2023/11/07 12:04:47;;;;;;;7.97;1.87;;;20.30;73.90;;;;;;5037409;28;20647;-67
2023/11/07 12:07:14;;;;;;;6.60;2.90;;;20.30;73.60;;;;;;5061896;28;20193;-66
2023/11/07 12:09:50;;;;;;;3.63;1.90;;;20.40;73.40;;;;;;5064653;28;20580;-66
2023/11/07 12:12:18;;;;;;;3.27;2.20;;;20.30;73.30;;;;;;5067827;28;20208;-64
2023/11/07 12:14:56;;;;;;;4.00;2.13;;;20.30;73.10;;;;;;5064925;28;20267;-64
2023/11/07 12:17:40;;;;;;;5.20;2.63;;;20.30;73.20;;;;;;5050985;28;20270;-65
2023/11/07 12:20:11;;;;;;;5.23;2.03;;;20.40;73.70;;;;;;5059595;28;20209;-65
2023/11/07 12:22:42;;;;;;;4.13;1.97;;;20.40;74.40;;;;;;5062762;28;20213;-67
2023/11/07 12:25:19;;;;;;;4.63;1.93;;;20.40;73.30;;;;;;5063434;28;20708;-64
2023/11/07 12:35:37;;;;;;;3.97;1.97;;;20.50;72.60;;;;;;5061001;28;20190;-64
2023/11/07 12:38:07;;;;;;;2.80;1.50;;;20.60;73.10;;;;;;5045497;28;20203;-65
2023/11/07 12:41:13;;;;;;;5.03;1.87;;;20.60;70.90;;;;;;5018410;28;20582;-67
2023/11/07 12:43:41;;;;;;;4.97;2.03;;;20.50;70.90;;;;;;5019139;28;20677;-66
2023/11/07 12:46:15;;;;;;;3.80;1.93;;;20.60;69.70;;;;;;5005677;28;20207;-65
2023/11/07 12:48:44;;;;;;;3.37;1.83;;;20.50;70.40;;;;;;5023573;28;20206;-64
2023/11/07 12:51:20;;;;;;;3.97;2.03;;;20.50;70.60;;;;;;4990030;28;20301;-66
2023/11/07 12:53:49;;;;;;;4.30;1.80;;;20.60;70.50;;;;;;5022598;28;20218;-66
2023/11/07 12:56:18;;;;;;;7.10;1.63;;;20.60;70.90;;;;;;5024513;28;20321;-65
2023/11/07 12:58:46;;;;;;;3.03;1.80;;;20.50;71.00;;;;;;5019947;28;20275;-65
2023/11/07 13:01:15;;;;;;;2.40;1.73;;;20.50;71.50;;;;;;5001704;28;20278;-65
2023/11/07 13:03:42;;;;;;;4.60;2.23;;;20.50;71.60;;;;;;5020593;28;20200;-66